Terminal Aerodrome Forecast
Issued by NWS

Home | Current Version | Previous Version | Text Only | Print | Product List | Glossary On
Versions: 1 2 3 4 5 6 7 8 9 10 11 12 13 14 15 16 17 18 19 20 21
000
FTUS46 KMTR 021739
TAFSNS
TAF
KSNS 021739Z 0218/0318 25007KT P6SM SCT025
     FM021900 28010KT P6SM SCT200
     FM022100 27012KT P6SM SKC
     FM030200 27009KT P6SM BKN015
     FM030600 26008KT P6SM OVC012
     FM031000 26007KT P6SM OVC009
     FM031600 25006KT P6SM SCT010 BKN017=

USA.gov is the U.S. government's official web portal to all federal, state and local government web resources and services.